sensor_id;sensor_type;location;lat;lon;timestamp;temperature;humidity
4651;DHT22;2338;49.602;8.722;2022-11-20T00:02:43;6.00;99.90
4651;DHT22;2338;49.602;8.722;2022-11-20T00:05:28;5.90;99.90
4651;DHT22;2338;49.602;8.722;2022-11-20T00:08:14;5.70;99.90
4651;DHT22;2338;49.602;8.722;2022-11-20T00:11:03;5.70;99.90
4651;DHT22;2338;49.602;8.722;2022-11-20T00:13:50;5.70;99.90
4651;DHT22;2338;49.602;8.722;2022-11-20T00:16:37;5.70;99.90
4651;DHT22;2338;49.602;8.722;2022-11-20T00:19:22;5.80;99.90
4651;DHT22;2338;49.602;8.722;2022-11-20T00:22:08;5.80;99.90
4651;DHT22;2338;49.602;8.722;2022-11-20T00:24:54;5.80;99.90
4651;DHT22;2338;49.602;8.722;2022-11-20T00:27:41;5.80;99.90
4651;DHT22;2338;49.602;8.722;2022-11-20T00:30:26;5.90;99.90
4651;DHT22;2338;49.602;8.722;2022-11-20T00:33:13;6.00;99.90
4651;DHT22;2338;49.602;8.722;2022-11-20T00:36:00;6.00;99.90
4651;DHT22;2338;49.602;8.722;2022-11-20T00:38:46;6.00;99.90
4651;DHT22;2338;49.602;8.722;2022-11-20T00:41:32;5.90;99.90
4651;DHT22;2338;49.602;8.722;2022-11-20T00:44:17;5.90;99.90
4651;DHT22;2338;49.602;8.722;2022-11-20T00:47:03;5.90;99.90
4651;DHT22;2338;49.602;8.722;2022-11-20T00:49:50;6.00;99.90
4651;DHT22;2338;49.602;8.722;2022-11-20T00:52:36;6.00;99.90
4651;DHT22;2338;49.602;8.722;2022-11-20T00:55:22;6.00;99.90
4651;DHT22;2338;49.602;8.722;2022-11-20T00:58:07;6.10;99.90
4651;DHT22;2338;49.602;8.722;2022-11-20T01:00:52;5.90;99.90
4651;DHT22;2338;49.602;8.722;2022-11-20T01:03:40;5.80;99.90
4651;DHT22;2338;49.602;8.722;2022-11-20T01:06:28;5.90;99.90
4651;DHT22;2338;49.602;8.722;2022-11-20T01:09:14;5.80;99.90
4651;DHT22;2338;49.602;8.722;2022-11-20T01:12:00;5.80;99.90
4651;DHT22;2338;49.602;8.722;2022-11-20T01:14:47;5.70;99.90
4651;DHT22;2338;49.602;8.722;2022-11-20T01:17:32;5.70;99.90
4651;DHT22;2338;49.602;8.722;2022-11-20T01:20:18;5.60;99.90
4651;DHT22;2338;49.602;8.722;2022-11-20T01:23:05;5.70;99.90
4651;DHT22;2338;49.602;8.722;2022-11-20T01:25:50;5.70;99.90
4651;DHT22;2338;49.602;8.722;2022-11-20T01:28:36;5.70;99.90
4651;DHT22;2338;49.602;8.722;2022-11-20T01:31:24;5.70;99.90
4651;DHT22;2338;49.602;8.722;2022-11-20T01:34:19;5.80;99.90
4651;DHT22;2338;49.602;8.722;2022-11-20T01:37:05;5.80;99.90
4651;DHT22;2338;49.602;8.722;2022-11-20T01:39:52;5.90;99.90
4651;DHT22;2338;49.602;8.722;2022-11-20T01:42:38;5.90;99.90
4651;DHT22;2338;49.602;8.722;2022-11-20T01:46:01;5.90;99.90
4651;DHT22;2338;49.602;8.722;2022-11-20T01:48:51;5.90;99.90
4651;DHT22;2338;49.602;8.722;2022-11-20T01:51:41;6.00;99.90
4651;DHT22;2338;49.602;8.722;2022-11-20T01:54:30;5.90;99.90
4651;DHT22;2338;49.602;8.722;2022-11-20T01:57:18;5.90;99.90
4651;DHT22;2338;49.602;8.722;2022-11-20T02:00:07;5.80;99.90
4651;DHT22;2338;49.602;8.722;2022-11-20T02:02:56;5.80;99.90
4651;DHT22;2338;49.602;8.722;2022-11-20T02:05:46;5.80;99.90
4651;DHT22;2338;49.602;8.722;2022-11-20T02:08:33;5.90;99.90
4651;DHT22;2338;49.602;8.722;2022-11-20T02:11:19;5.90;99.90
4651;DHT22;2338;49.602;8.722;2022-11-20T02:14:06;6.00;99.90
4651;DHT22;2338;49.602;8.722;2022-11-20T02:16:52;6.00;99.90
4651;DHT22;2338;49.602;8.722;2022-11-20T02:19:39;5.90;99.90
4651;DHT22;2338;49.602;8.722;2022-11-20T02:22:29;5.90;99.90
4651;DHT22;2338;49.602;8.722;2022-11-20T02:25:17;5.90;99.90
4651;DHT22;2338;49.602;8.722;2022-11-20T02:28:05;5.80;99.90
4651;DHT22;2338;49.602;8.722;2022-11-20T02:30:51;5.70;99.90
4651;DHT22;2338;49.602;8.722;2022-11-20T02:33:36;5.50;99.90
4651;DHT22;2338;49.602;8.722;2022-11-20T02:36:25;5.50;99.90
4651;DHT22;2338;49.602;8.722;2022-11-20T02:39:13;5.60;99.90
4651;DHT22;2338;49.602;8.722;2022-11-20T02:42:02;5.70;99.90
4651;DHT22;2338;49.602;8.722;2022-11-20T02:44:48;5.70;99.90
4651;DHT22;2338;49.602;8.722;2022-11-20T02:47:33;5.70;99.90
4651;DHT22;2338;49.602;8.722;2022-11-20T02:50:19;5.70;99.90
4651;DHT22;2338;49.602;8.722;2022-11-20T02:53:05;5.70;99.90
4651;DHT22;2338;49.602;8.722;2022-11-20T02:55:51;5.80;99.90
4651;DHT22;2338;49.602;8.722;2022-11-20T02:58:38;5.90;99.90
4651;DHT22;2338;49.602;8.722;2022-11-20T03:01:23;5.90;99.90
4651;DHT22;2338;49.602;8.722;2022-11-20T03:04:09;6.00;99.90
4651;DHT22;2338;49.602;8.722;2022-11-20T03:06:55;5.90;99.90
4651;DHT22;2338;49.602;8.722;2022-11-20T03:09:40;5.80;99.90
4651;DHT22;2338;49.602;8.722;2022-11-20T03:12:26;5.80;99.90
4651;DHT22;2338;49.602;8.722;2022-11-20T03:15:13;5.60;99.90
4651;DHT22;2338;49.602;8.722;2022-11-20T03:17:59;5.70;99.90
4651;DHT22;2338;49.602;8.722;2022-11-20T03:20:45;5.70;99.90
4651;DHT22;2338;49.602;8.722;2022-11-20T03:23:31;5.80;99.90
4651;DHT22;2338;49.602;8.722;2022-11-20T03:26:19;5.90;99.90
4651;DHT22;2338;49.602;8.722;2022-11-20T03:29:05;6.00;99.90
4651;DHT22;2338;49.602;8.722;2022-11-20T03:31:52;5.90;99.90
4651;DHT22;2338;49.602;8.722;2022-11-20T03:34:37;5.80;99.90
4651;DHT22;2338;49.602;8.722;2022-11-20T03:37:23;5.80;99.90
4651;DHT22;2338;49.602;8.722;2022-11-20T03:40:09;5.80;99.90
4651;DHT22;2338;49.602;8.722;2022-11-20T03:42:55;5.80;99.90
4651;DHT22;2338;49.602;8.722;2022-11-20T03:45:40;5.80;99.90
4651;DHT22;2338;49.602;8.722;2022-11-20T03:48:28;5.80;99.90
4651;DHT22;2338;49.602;8.722;2022-11-20T03:51:16;5.90;99.90
4651;DHT22;2338;49.602;8.722;2022-11-20T03:54:03;6.00;99.90
4651;DHT22;2338;49.602;8.722;2022-11-20T03:56:49;5.90;99.90
4651;DHT22;2338;49.602;8.722;2022-11-20T03:59:34;6.00;99.90
4651;DHT22;2338;49.602;8.722;2022-11-20T04:02:20;6.00;99.90
4651;DHT22;2338;49.602;8.722;2022-11-20T04:05:08;6.00;99.90
4651;DHT22;2338;49.602;8.722;2022-11-20T04:07:53;5.90;99.90
4651;DHT22;2338;49.602;8.722;2022-11-20T04:10:39;5.80;99.90
4651;DHT22;2338;49.602;8.722;2022-11-20T04:13:24;5.80;99.90
4651;DHT22;2338;49.602;8.722;2022-11-20T04:16:10;5.90;99.90
4651;DHT22;2338;49.602;8.722;2022-11-20T04:18:57;5.90;99.90
4651;DHT22;2338;49.602;8.722;2022-11-20T04:21:45;5.80;99.90
4651;DHT22;2338;49.602;8.722;2022-11-20T04:24:31;5.80;99.90
4651;DHT22;2338;49.602;8.722;2022-11-20T04:27:17;5.90;99.90
4651;DHT22;2338;49.602;8.722;2022-11-20T04:30:02;6.00;99.90
4651;DHT22;2338;49.602;8.722;2022-11-20T04:32:48;6.10;99.90
4651;DHT22;2338;49.602;8.722;2022-11-20T04:35:34;6.10;99.90
4651;DHT22;2338;49.602;8.722;2022-11-20T04:38:21;6.20;99.90
4651;DHT22;2338;49.602;8.722;2022-11-20T04:41:09;6.30;99.90
4651;DHT22;2338;49.602;8.722;2022-11-20T04:43:59;6.30;99.90
4651;DHT22;2338;49.602;8.722;2022-11-20T04:46:47;6.20;99.90
4651;DHT22;2338;49.602;8.722;2022-11-20T04:49:32;6.20;99.90
4651;DHT22;2338;49.602;8.722;2022-11-20T04:52:18;6.20;99.90
4651;DHT22;2338;49.602;8.722;2022-11-20T04:55:07;6.30;99.90
4651;DHT22;2338;49.602;8.722;2022-11-20T04:57:52;6.30;99.90
4651;DHT22;2338;49.602;8.722;2022-11-20T05:00:38;6.30;99.90
4651;DHT22;2338;49.602;8.722;2022-11-20T05:03:24;6.30;99.90
4651;DHT22;2338;49.602;8.722;2022-11-20T05:06:11;6.40;99.90
4651;DHT22;2338;49.602;8.722;2022-11-20T05:08:56;6.40;99.90
4651;DHT22;2338;49.602;8.722;2022-11-20T05:11:43;6.30;99.90
4651;DHT22;2338;49.602;8.722;2022-11-20T05:14:28;6.30;99.90
4651;DHT22;2338;49.602;8.722;2022-11-20T05:17:14;6.20;99.90
4651;DHT22;2338;49.602;8.722;2022-11-20T05:20:00;6.20;99.90
4651;DHT22;2338;49.602;8.722;2022-11-20T05:22:45;6.10;99.90
4651;DHT22;2338;49.602;8.722;2022-11-20T05:25:31;6.00;99.90
4651;DHT22;2338;49.602;8.722;2022-11-20T05:28:17;6.10;99.90
4651;DHT22;2338;49.602;8.722;2022-11-20T05:31:07;6.20;99.90
4651;DHT22;2338;49.602;8.722;2022-11-20T05:33:53;6.20;99.90
4651;DHT22;2338;49.602;8.722;2022-11-20T05:36:39;6.10;99.90
4651;DHT22;2338;49.602;8.722;2022-11-20T05:39:25;6.10;99.90
4651;DHT22;2338;49.602;8.722;2022-11-20T05:42:10;6.20;99.90
4651;DHT22;2338;49.602;8.722;2022-11-20T05:45:15;6.20;99.90
4651;DHT22;2338;49.602;8.722;2022-11-20T05:48:00;6.30;99.90
4651;DHT22;2338;49.602;8.722;2022-11-20T05:50:46;6.20;99.90
4651;DHT22;2338;49.602;8.722;2022-11-20T05:53:32;6.30;99.90
4651;DHT22;2338;49.602;8.722;2022-11-20T05:56:19;6.40;99.90
4651;DHT22;2338;49.602;8.722;2022-11-20T05:59:05;6.40;99.90
4651;DHT22;2338;49.602;8.722;2022-11-20T06:01:52;6.40;99.90
4651;DHT22;2338;49.602;8.722;2022-11-20T06:04:38;6.50;99.90
4651;DHT22;2338;49.602;8.722;2022-11-20T06:07:23;6.50;99.90
4651;DHT22;2338;49.602;8.722;2022-11-20T06:10:09;6.50;99.90
4651;DHT22;2338;49.602;8.722;2022-11-20T06:12:57;6.50;99.90
4651;DHT22;2338;49.602;8.722;2022-11-20T06:15:48;6.50;99.90
4651;DHT22;2338;49.602;8.722;2022-11-20T06:18:35;6.50;99.90
4651;DHT22;2338;49.602;8.722;2022-11-20T06:21:23;6.50;99.90
4651;DHT22;2338;49.602;8.722;2022-11-20T06:24:09;6.50;99.90
4651;DHT22;2338;49.602;8.722;2022-11-20T06:26:55;6.50;99.90
4651;DHT22;2338;49.602;8.722;2022-11-20T06:29:40;6.40;99.90
4651;DHT22;2338;49.602;8.722;2022-11-20T06:32:26;6.40;99.90
4651;DHT22;2338;49.602;8.722;2022-11-20T06:35:13;6.40;99.90
4651;DHT22;2338;49.602;8.722;2022-11-20T06:37:58;6.50;99.90
4651;DHT22;2338;49.602;8.722;2022-11-20T06:40:44;6.50;99.90
4651;DHT22;2338;49.602;8.722;2022-11-20T06:43:30;6.50;99.90
4651;DHT22;2338;49.602;8.722;2022-11-20T06:46:16;6.60;99.90
4651;DHT22;2338;49.602;8.722;2022-11-20T06:49:02;6.60;99.90
4651;DHT22;2338;49.602;8.722;2022-11-20T06:51:49;6.60;99.90
4651;DHT22;2338;49.602;8.722;2022-11-20T06:54:34;6.50;99.90
4651;DHT22;2338;49.602;8.722;2022-11-20T06:57:20;6.50;99.90
4651;DHT22;2338;49.602;8.722;2022-11-20T07:00:07;6.50;99.90
4651;DHT22;2338;49.602;8.722;2022-11-20T07:02:52;6.40;99.90
4651;DHT22;2338;49.602;8.722;2022-11-20T07:05:38;6.40;99.90
4651;DHT22;2338;49.602;8.722;2022-11-20T07:08:27;6.40;99.90
4651;DHT22;2338;49.602;8.722;2022-11-20T07:11:12;6.30;99.90
4651;DHT22;2338;49.602;8.722;2022-11-20T07:13:58;6.40;99.90
4651;DHT22;2338;49.602;8.722;2022-11-20T07:16:44;6.50;99.90
4651;DHT22;2338;49.602;8.722;2022-11-20T07:19:30;6.50;99.90
4651;DHT22;2338;49.602;8.722;2022-11-20T07:22:15;6.50;99.90
4651;DHT22;2338;49.602;8.722;2022-11-20T07:25:02;6.60;99.90
4651;DHT22;2338;49.602;8.722;2022-11-20T07:27:48;6.50;99.90
4651;DHT22;2338;49.602;8.722;2022-11-20T07:30:34;6.50;99.90
4651;DHT22;2338;49.602;8.722;2022-11-20T07:33:20;6.50;99.90
4651;DHT22;2338;49.602;8.722;2022-11-20T07:36:06;6.50;99.90
4651;DHT22;2338;49.602;8.722;2022-11-20T07:38:52;6.60;99.90
4651;DHT22;2338;49.602;8.722;2022-11-20T07:41:39;6.60;99.90
4651;DHT22;2338;49.602;8.722;2022-11-20T07:44:25;6.60;99.90
4651;DHT22;2338;49.602;8.722;2022-11-20T07:47:11;6.70;99.90
4651;DHT22;2338;49.602;8.722;2022-11-20T07:49:56;6.70;99.90
4651;DHT22;2338;49.602;8.722;2022-11-20T07:52:42;6.70;99.90
4651;DHT22;2338;49.602;8.722;2022-11-20T07:55:27;6.80;99.90
4651;DHT22;2338;49.602;8.722;2022-11-20T07:58:14;6.70;99.90
4651;DHT22;2338;49.602;8.722;2022-11-20T08:01:03;6.70;99.90
4651;DHT22;2338;49.602;8.722;2022-11-20T08:03:49;6.70;99.90
4651;DHT22;2338;49.602;8.722;2022-11-20T08:06:35;6.70;99.90
4651;DHT22;2338;49.602;8.722;2022-11-20T08:09:21;6.60;99.90
4651;DHT22;2338;49.602;8.722;2022-11-20T08:12:06;6.60;99.90
4651;DHT22;2338;49.602;8.722;2022-11-20T08:15:11;6.60;99.90
4651;DHT22;2338;49.602;8.722;2022-11-20T08:18:04;6.70;99.90
4651;DHT22;2338;49.602;8.722;2022-11-20T08:20:50;6.80;99.90
4651;DHT22;2338;49.602;8.722;2022-11-20T08:23:36;6.70;99.90
4651;DHT22;2338;49.602;8.722;2022-11-20T08:26:21;6.80;99.90
4651;DHT22;2338;49.602;8.722;2022-11-20T08:29:07;6.80;99.90
4651;DHT22;2338;49.602;8.722;2022-11-20T08:31:54;6.80;99.90
4651;DHT22;2338;49.602;8.722;2022-11-20T08:34:39;6.80;99.90
4651;DHT22;2338;49.602;8.722;2022-11-20T08:37:25;6.80;99.90
4651;DHT22;2338;49.602;8.722;2022-11-20T08:40:11;6.80;99.90
4651;DHT22;2338;49.602;8.722;2022-11-20T08:42:57;6.70;99.90
4651;DHT22;2338;49.602;8.722;2022-11-20T08:45:42;6.40;99.90
4651;DHT22;2338;49.602;8.722;2022-11-20T08:48:29;6.30;99.90
4651;DHT22;2338;49.602;8.722;2022-11-20T08:51:15;6.40;99.90
4651;DHT22;2338;49.602;8.722;2022-11-20T08:54:00;6.40;99.90
4651;DHT22;2338;49.602;8.722;2022-11-20T08:56:46;6.40;99.90
4651;DHT22;2338;49.602;8.722;2022-11-20T08:59:32;6.50;99.90
4651;DHT22;2338;49.602;8.722;2022-11-20T09:02:17;6.50;99.90
4651;DHT22;2338;49.602;8.722;2022-11-20T09:05:05;6.40;99.90
4651;DHT22;2338;49.602;8.722;2022-11-20T09:07:51;6.50;99.90
4651;DHT22;2338;49.602;8.722;2022-11-20T09:10:36;6.60;99.90
4651;DHT22;2338;49.602;8.722;2022-11-20T09:13:24;6.60;99.90
4651;DHT22;2338;49.602;8.722;2022-11-20T09:16:10;6.70;99.90
4651;DHT22;2338;49.602;8.722;2022-11-20T09:18:55;6.80;99.90
4651;DHT22;2338;49.602;8.722;2022-11-20T09:21:42;6.70;99.90
4651;DHT22;2338;49.602;8.722;2022-11-20T09:24:28;6.70;99.90
4651;DHT22;2338;49.602;8.722;2022-11-20T09:27:13;6.60;99.90
4651;DHT22;2338;49.602;8.722;2022-11-20T09:29:59;6.60;99.90
4651;DHT22;2338;49.602;8.722;2022-11-20T09:32:45;6.70;99.90
4651;DHT22;2338;49.602;8.722;2022-11-20T09:35:30;6.70;99.90
4651;DHT22;2338;49.602;8.722;2022-11-20T09:38:18;6.70;99.90
4651;DHT22;2338;49.602;8.722;2022-11-20T09:41:05;6.70;99.90
4651;DHT22;2338;49.602;8.722;2022-11-20T09:43:57;6.70;99.90
4651;DHT22;2338;49.602;8.722;2022-11-20T09:46:52;6.70;99.90
4651;DHT22;2338;49.602;8.722;2022-11-20T09:49:53;6.60;99.90
4651;DHT22;2338;49.602;8.722;2022-11-20T09:52:47;6.50;99.90
4651;DHT22;2338;49.602;8.722;2022-11-20T09:55:41;6.50;99.90
4651;DHT22;2338;49.602;8.722;2022-11-20T09:58:32;6.40;99.90
4651;DHT22;2338;49.602;8.722;2022-11-20T10:01:23;6.40;99.90
4651;DHT22;2338;49.602;8.722;2022-11-20T10:04:16;6.40;99.90
4651;DHT22;2338;49.602;8.722;2022-11-20T10:07:06;6.50;99.90
4651;DHT22;2338;49.602;8.722;2022-11-20T10:09:55;6.50;99.90
4651;DHT22;2338;49.602;8.722;2022-11-20T10:12:52;6.40;99.90
4651;DHT22;2338;49.602;8.722;2022-11-20T10:15:47;6.50;99.90
4651;DHT22;2338;49.602;8.722;2022-11-20T10:18:51;6.60;99.90
4651;DHT22;2338;49.602;8.722;2022-11-20T10:21:52;6.60;99.90
4651;DHT22;2338;49.602;8.722;2022-11-20T10:24:48;6.80;99.90
4651;DHT22;2338;49.602;8.722;2022-11-20T10:28:00;6.80;99.90
4651;DHT22;2338;49.602;8.722;2022-11-20T10:30:56;6.80;99.90
4651;DHT22;2338;49.602;8.722;2022-11-20T10:33:45;6.90;99.90
4651;DHT22;2338;49.602;8.722;2022-11-20T10:36:35;6.90;99.90
4651;DHT22;2338;49.602;8.722;2022-11-20T10:39:31;7.00;99.90
4651;DHT22;2338;49.602;8.722;2022-11-20T10:42:26;6.90;99.90
4651;DHT22;2338;49.602;8.722;2022-11-20T10:45:21;6.90;99.90
4651;DHT22;2338;49.602;8.722;2022-11-20T10:48:16;6.90;99.90
4651;DHT22;2338;49.602;8.722;2022-11-20T10:51:13;6.90;99.90
4651;DHT22;2338;49.602;8.722;2022-11-20T10:54:12;6.80;99.90
4651;DHT22;2338;49.602;8.722;2022-11-20T10:57:05;6.80;99.90
4651;DHT22;2338;49.602;8.722;2022-11-20T11:00:04;6.90;99.90
4651;DHT22;2338;49.602;8.722;2022-11-20T11:02:52;6.80;99.90
4651;DHT22;2338;49.602;8.722;2022-11-20T11:05:41;6.90;99.90
4651;DHT22;2338;49.602;8.722;2022-11-20T11:08:35;6.90;99.90
4651;DHT22;2338;49.602;8.722;2022-11-20T11:11:24;7.00;99.90
4651;DHT22;2338;49.602;8.722;2022-11-20T11:14:13;7.00;99.90
4651;DHT22;2338;49.602;8.722;2022-11-20T11:16:58;7.10;99.90
4651;DHT22;2338;49.602;8.722;2022-11-20T11:20:00;7.10;99.90
4651;DHT22;2338;49.602;8.722;2022-11-20T11:22:47;7.20;99.90
4651;DHT22;2338;49.602;8.722;2022-11-20T11:25:35;7.20;99.90
4651;DHT22;2338;49.602;8.722;2022-11-20T11:28:25;7.10;99.90
4651;DHT22;2338;49.602;8.722;2022-11-20T11:31:22;7.20;99.90
4651;DHT22;2338;49.602;8.722;2022-11-20T11:34:12;7.20;99.90
4651;DHT22;2338;49.602;8.722;2022-11-20T11:37:00;7.30;99.90
4651;DHT22;2338;49.602;8.722;2022-11-20T11:39:47;7.50;99.90
4651;DHT22;2338;49.602;8.722;2022-11-20T11:42:33;7.50;99.90
4651;DHT22;2338;49.602;8.722;2022-11-20T11:45:19;7.60;99.90
4651;DHT22;2338;49.602;8.722;2022-11-20T11:48:08;7.60;99.90
4651;DHT22;2338;49.602;8.722;2022-11-20T11:50:54;7.60;99.90
4651;DHT22;2338;49.602;8.722;2022-11-20T11:53:41;7.70;99.90
4651;DHT22;2338;49.602;8.722;2022-11-20T11:56:28;7.70;99.90
4651;DHT22;2338;49.602;8.722;2022-11-20T11:59:21;7.70;99.90
4651;DHT22;2338;49.602;8.722;2022-11-20T12:02:18;7.50;99.90
4651;DHT22;2338;49.602;8.722;2022-11-20T12:05:17;7.60;99.90
4651;DHT22;2338;49.602;8.722;2022-11-20T12:08:06;7.60;99.90
4651;DHT22;2338;49.602;8.722;2022-11-20T12:11:02;7.50;99.90
4651;DHT22;2338;49.602;8.722;2022-11-20T12:13:53;7.60;99.90
4651;DHT22;2338;49.602;8.722;2022-11-20T12:16:41;7.70;99.90
4651;DHT22;2338;49.602;8.722;2022-11-20T12:19:28;7.70;99.90
4651;DHT22;2338;49.602;8.722;2022-11-20T12:22:24;7.70;99.90
4651;DHT22;2338;49.602;8.722;2022-11-20T12:25:17;7.70;99.90
4651;DHT22;2338;49.602;8.722;2022-11-20T12:28:16;7.80;99.90
4651;DHT22;2338;49.602;8.722;2022-11-20T12:31:22;7.80;99.90
4651;DHT22;2338;49.602;8.722;2022-11-20T12:34:21;7.70;99.90
4651;DHT22;2338;49.602;8.722;2022-11-20T12:37:19;7.80;99.90
4651;DHT22;2338;49.602;8.722;2022-11-20T12:40:22;7.70;99.90
4651;DHT22;2338;49.602;8.722;2022-11-20T12:43:19;7.60;99.90
4651;DHT22;2338;49.602;8.722;2022-11-20T12:46:29;7.60;99.90
4651;DHT22;2338;49.602;8.722;2022-11-20T12:49:26;7.60;99.90
4651;DHT22;2338;49.602;8.722;2022-11-20T12:52:26;7.60;99.90
4651;DHT22;2338;49.602;8.722;2022-11-20T12:55:23;7.70;99.90
4651;DHT22;2338;49.602;8.722;2022-11-20T12:58:17;7.70;99.90
4651;DHT22;2338;49.602;8.722;2022-11-20T13:01:12;7.70;99.90
4651;DHT22;2338;49.602;8.722;2022-11-20T13:04:50;7.80;99.90
4651;DHT22;2338;49.602;8.722;2022-11-20T13:07:39;7.80;99.90
4651;DHT22;2338;49.602;8.722;2022-11-20T13:10:32;7.90;99.90
4651;DHT22;2338;49.602;8.722;2022-11-20T13:13:25;7.90;99.90
4651;DHT22;2338;49.602;8.722;2022-11-20T13:16:15;8.00;99.90
4651;DHT22;2338;49.602;8.722;2022-11-20T13:19:03;8.00;99.90
4651;DHT22;2338;49.602;8.722;2022-11-20T13:21:50;8.00;99.90
4651;DHT22;2338;49.602;8.722;2022-11-20T13:24:36;8.00;99.90
4651;DHT22;2338;49.602;8.722;2022-11-20T13:27:23;8.00;99.90
4651;DHT22;2338;49.602;8.722;2022-11-20T13:30:16;8.00;99.90
4651;DHT22;2338;49.602;8.722;2022-11-20T13:33:07;8.00;99.90
4651;DHT22;2338;49.602;8.722;2022-11-20T13:35:56;8.10;99.90
4651;DHT22;2338;49.602;8.722;2022-11-20T13:38:44;8.10;99.90
4651;DHT22;2338;49.602;8.722;2022-11-20T13:41:32;8.20;99.90
4651;DHT22;2338;49.602;8.722;2022-11-20T13:44:25;8.30;99.90
4651;DHT22;2338;49.602;8.722;2022-11-20T13:47:20;8.40;99.90
4651;DHT22;2338;49.602;8.722;2022-11-20T13:50:09;8.50;99.90
4651;DHT22;2338;49.602;8.722;2022-11-20T13:52:59;8.50;99.90
4651;DHT22;2338;49.602;8.722;2022-11-20T13:55:54;8.40;99.90
4651;DHT22;2338;49.602;8.722;2022-11-20T13:58:47;8.50;99.90
4651;DHT22;2338;49.602;8.722;2022-11-20T14:01:38;8.40;99.90
4651;DHT22;2338;49.602;8.722;2022-11-20T14:04:28;8.50;99.90
4651;DHT22;2338;49.602;8.722;2022-11-20T14:07:15;8.50;99.90
4651;DHT22;2338;49.602;8.722;2022-11-20T14:10:02;8.50;99.90
4651;DHT22;2338;49.602;8.722;2022-11-20T14:12:47;8.60;99.90
4651;DHT22;2338;49.602;8.722;2022-11-20T14:15:35;8.50;99.90
4651;DHT22;2338;49.602;8.722;2022-11-20T14:18:23;8.50;99.90
4651;DHT22;2338;49.602;8.722;2022-11-20T14:21:21;8.40;99.90
4651;DHT22;2338;49.602;8.722;2022-11-20T14:24:11;8.40;99.90
4651;DHT22;2338;49.602;8.722;2022-11-20T14:26:57;8.40;99.90
4651;DHT22;2338;49.602;8.722;2022-11-20T14:29:43;8.30;99.90
4651;DHT22;2338;49.602;8.722;2022-11-20T14:32:30;8.30;99.90
4651;DHT22;2338;49.602;8.722;2022-11-20T14:35:21;8.30;99.90
4651;DHT22;2338;49.602;8.722;2022-11-20T14:38:12;8.30;99.90
4651;DHT22;2338;49.602;8.722;2022-11-20T14:41:06;8.40;99.90
4651;DHT22;2338;49.602;8.722;2022-11-20T14:43:56;8.40;99.90
4651;DHT22;2338;49.602;8.722;2022-11-20T14:46:42;8.30;99.90
4651;DHT22;2338;49.602;8.722;2022-11-20T14:49:30;8.30;99.90
4651;DHT22;2338;49.602;8.722;2022-11-20T14:52:18;8.20;99.90
4651;DHT22;2338;49.602;8.722;2022-11-20T14:55:13;8.20;99.90
4651;DHT22;2338;49.602;8.722;2022-11-20T14:58:00;8.30;99.90
4651;DHT22;2338;49.602;8.722;2022-11-20T15:00:54;8.20;99.90
4651;DHT22;2338;49.602;8.722;2022-11-20T15:03:40;8.10;99.90
4651;DHT22;2338;49.602;8.722;2022-11-20T15:06:26;8.00;99.90
4651;DHT22;2338;49.602;8.722;2022-11-20T15:09:14;7.90;99.90
4651;DHT22;2338;49.602;8.722;2022-11-20T15:12:02;7.90;99.90
4651;DHT22;2338;49.602;8.722;2022-11-20T15:14:48;7.90;99.90
4651;DHT22;2338;49.602;8.722;2022-11-20T15:17:37;7.80;99.90
4651;DHT22;2338;49.602;8.722;2022-11-20T15:20:27;7.80;99.90
4651;DHT22;2338;49.602;8.722;2022-11-20T15:23:15;7.70;99.90
4651;DHT22;2338;49.602;8.722;2022-11-20T15:26:04;7.70;99.90
4651;DHT22;2338;49.602;8.722;2022-11-20T15:28:52;7.70;99.90
4651;DHT22;2338;49.602;8.722;2022-11-20T15:31:38;7.70;99.90
4651;DHT22;2338;49.602;8.722;2022-11-20T15:34:27;7.60;99.90
4651;DHT22;2338;49.602;8.722;2022-11-20T15:37:13;7.60;99.90
4651;DHT22;2338;49.602;8.722;2022-11-20T15:39:58;7.60;99.90
4651;DHT22;2338;49.602;8.722;2022-11-20T15:42:44;7.40;99.90
4651;DHT22;2338;49.602;8.722;2022-11-20T15:45:47;7.40;99.90
4651;DHT22;2338;49.602;8.722;2022-11-20T15:48:37;7.50;99.90
4651;DHT22;2338;49.602;8.722;2022-11-20T15:51:26;7.50;99.90
4651;DHT22;2338;49.602;8.722;2022-11-20T15:54:14;7.50;99.90
4651;DHT22;2338;49.602;8.722;2022-11-20T15:57:01;7.50;99.90
4651;DHT22;2338;49.602;8.722;2022-11-20T15:59:47;7.50;99.90
4651;DHT22;2338;49.602;8.722;2022-11-20T16:02:34;7.60;99.90
4651;DHT22;2338;49.602;8.722;2022-11-20T16:05:19;7.50;99.90
4651;DHT22;2338;49.602;8.722;2022-11-20T16:08:07;7.60;99.90
4651;DHT22;2338;49.602;8.722;2022-11-20T16:10:53;7.50;99.90
4651;DHT22;2338;49.602;8.722;2022-11-20T16:13:38;7.40;99.90
4651;DHT22;2338;49.602;8.722;2022-11-20T16:16:42;7.30;99.90
4651;DHT22;2338;49.602;8.722;2022-11-20T16:19:29;7.30;99.90
4651;DHT22;2338;49.602;8.722;2022-11-20T16:22:14;7.30;99.90
4651;DHT22;2338;49.602;8.722;2022-11-20T16:25:00;7.20;99.90
4651;DHT22;2338;49.602;8.722;2022-11-20T16:27:46;7.30;99.90
4651;DHT22;2338;49.602;8.722;2022-11-20T16:30:31;7.40;99.90
4651;DHT22;2338;49.602;8.722;2022-11-20T16:33:17;7.30;99.90
4651;DHT22;2338;49.602;8.722;2022-11-20T16:36:08;7.40;99.90
4651;DHT22;2338;49.602;8.722;2022-11-20T16:38:55;7.40;99.90
4651;DHT22;2338;49.602;8.722;2022-11-20T16:41:40;7.50;99.90
4651;DHT22;2338;49.602;8.722;2022-11-20T16:44:26;7.50;99.90
4651;DHT22;2338;49.602;8.722;2022-11-20T16:47:12;7.50;99.90
4651;DHT22;2338;49.602;8.722;2022-11-20T16:49:58;7.40;99.90
4651;DHT22;2338;49.602;8.722;2022-11-20T16:52:45;7.40;99.90
4651;DHT22;2338;49.602;8.722;2022-11-20T16:55:30;7.40;99.90
4651;DHT22;2338;49.602;8.722;2022-11-20T16:58:16;7.40;99.90
4651;DHT22;2338;49.602;8.722;2022-11-20T17:01:05;7.40;99.90
4651;DHT22;2338;49.602;8.722;2022-11-20T17:03:54;7.50;99.90
4651;DHT22;2338;49.602;8.722;2022-11-20T17:06:42;7.60;99.90
4651;DHT22;2338;49.602;8.722;2022-11-20T17:09:29;7.60;99.90
4651;DHT22;2338;49.602;8.722;2022-11-20T17:12:15;7.50;99.90
4651;DHT22;2338;49.602;8.722;2022-11-20T17:15:00;7.50;99.90
4651;DHT22;2338;49.602;8.722;2022-11-20T17:17:46;7.60;99.90
4651;DHT22;2338;49.602;8.722;2022-11-20T17:20:31;7.70;99.90
4651;DHT22;2338;49.602;8.722;2022-11-20T17:23:17;7.70;99.90
4651;DHT22;2338;49.602;8.722;2022-11-20T17:26:05;7.70;99.90
4651;DHT22;2338;49.602;8.722;2022-11-20T17:28:54;7.70;99.90
4651;DHT22;2338;49.602;8.722;2022-11-20T17:31:40;7.70;99.90
4651;DHT22;2338;49.602;8.722;2022-11-20T17:34:26;7.70;99.90
4651;DHT22;2338;49.602;8.722;2022-11-20T17:37:12;7.70;99.90
4651;DHT22;2338;49.602;8.722;2022-11-20T17:39:58;7.70;99.90
4651;DHT22;2338;49.602;8.722;2022-11-20T17:42:44;7.60;99.90
4651;DHT22;2338;49.602;8.722;2022-11-20T17:45:30;7.60;99.90
4651;DHT22;2338;49.602;8.722;2022-11-20T17:48:16;7.60;99.90
4651;DHT22;2338;49.602;8.722;2022-11-20T17:51:02;7.70;99.90
4651;DHT22;2338;49.602;8.722;2022-11-20T17:53:51;7.70;99.90
4651;DHT22;2338;49.602;8.722;2022-11-20T17:56:36;7.70;99.90
4651;DHT22;2338;49.602;8.722;2022-11-20T17:59:46;7.70;99.90
4651;DHT22;2338;49.602;8.722;2022-11-20T18:02:32;7.70;99.90
4651;DHT22;2338;49.602;8.722;2022-11-20T18:05:17;7.70;99.90
4651;DHT22;2338;49.602;8.722;2022-11-20T18:08:03;7.70;99.90
4651;DHT22;2338;49.602;8.722;2022-11-20T18:10:48;7.70;99.90
4651;DHT22;2338;49.602;8.722;2022-11-20T18:13:34;7.70;99.90
4651;DHT22;2338;49.602;8.722;2022-11-20T18:16:37;7.70;99.90
4651;DHT22;2338;49.602;8.722;2022-11-20T18:19:25;7.70;99.90
4651;DHT22;2338;49.602;8.722;2022-11-20T18:22:11;7.70;99.90
4651;DHT22;2338;49.602;8.722;2022-11-20T18:24:57;7.70;99.90
4651;DHT22;2338;49.602;8.722;2022-11-20T18:27:42;7.70;99.90
4651;DHT22;2338;49.602;8.722;2022-11-20T18:30:28;7.70;99.90
4651;DHT22;2338;49.602;8.722;2022-11-20T18:33:15;7.70;99.90
4651;DHT22;2338;49.602;8.722;2022-11-20T18:36:08;7.60;99.90
4651;DHT22;2338;49.602;8.722;2022-11-20T18:38:55;7.50;99.90